Racecast

Jaxin Woodward

High School Girl (CA) · 10 · STS · Compare head to head

Athlete rating 128.5 2017 TF season
Best race 147.9 TF
Races 150
Seasons 9 2008 — 2017

RankedNation #4764·CA #572·Team #2 ?

Rating scale ?
Speed rating — all races

Cross Country

XC speed rating

2009 XC 127.0

Full Stride (CA) · Grade 3

Date Meet Event Result Place Rating Difficulty PR/SR Flags
2009-11-29 Rancho San Rafael 2735m 13:16 5th · 1st on team 118.2 ★PR ★CR SR CSR
2009-11-22 Spring Lake Park 3000m 13:20 3rd · 1st on team 132.8 +0.043 ★PR ★CR R SR CSR RSR
2009-11-15 Beal Point 2000m 7:57.2 1st · 1st on team 132.1 -0.047 ★PR ★CR R SR CSR RSR
2009-11-08 Bedwell Bayfront Park 2000m 8:08 1st · 1st on team 130.9 -0.026 ★CR CSR
2009-11-01 Cesar Chavez Middle School 2000m 7:58 1st · 1st on team 132.1 -0.045 PR ★CR R SR CSR RSR
2009-10-18 Shadow Cliffs Regional Park 2000m 9:44.1 1st · 1st on team 118.8 +0.057 ★CR CSR
2009-10-11 Eveergreen Park 2000m 8:58 1st · 1st on team 124.4 +0.018 PR ★CR SR CSR RSR

Track & Field

TF speed rating

2017 TF 128.5

High School Girl (CA) · Grade 10

Date Meet Event Result Place Rating Difficulty PR/SR Flags
2017-02-04 Berkeley AC 300m 46.11 10th · 10th on team -0.036 ★PR SR
2017-02-04 Berkeley AC 1500m 4:57.69 11th · 6th on team 128.5 -0.036 SR RSR

2015 TF 139.3

Full Stride (CA) · Grade 8

Date Meet Event Result Place Rating Difficulty PR/SR Flags
2015-06-21 USATF Pacific Association Junior Olympic Championships 3000m 10:48.92 7th · 1st on team 139.4 -0.031
2015-06-21 USATF Pacific Association Junior Olympic Championships 800m 2:21.78 2nd · 1st on team 141.5 -0.031 SR
2015-06-21 USATF Pacific Association Junior Olympic Championships 1500m 4:57.82 4th · 1st on team 140.3 -0.031
2015-05-31 PAC (Pacific Association Youth Champions 800m 2:23.12 3rd · 1st on team 141.2 -0.024 SR
2015-05-31 PAC (Pacific Association Youth Champions 3000m 10:43.46 2nd · 1st on team 141.6 -0.024
2015-05-16 3M Track Club Track and Field Invitation 1500m 4:57.43 2nd · 1st on team 141.1 -0.028 SR
2015-05-02 Running Rebels/Top Pacers Invitational 1500m 5:00.29 1st · 1st on team 138.1 -0.038 SR
2015-04-25 Revolution Express Track Club 3000m 10:35.61 1st · 1st on team 142.9 -0.024 ★PR SR RSR
2015-04-18 CA Track Club 1500m 5:07.19 1st · 1st on team 135.1 -0.038
2015-04-18 CA Track Club 800m 2:30.4 1st · 1st on team 132.4 -0.038
2015-04-18 CA Track Club 400m 1:03.22 3rd · 1st on team -0.038
2015-03-28 Contra Costa Cheetahs 1500m 5:07.47 1st · 1st on team 138.5 -0.017
2015-03-28 Contra Costa Cheetahs 200m 28.78 11th · 1st on team -0.017 ★PR SR
2015-03-28 Contra Costa Cheetahs 800m 2:27.55 1st · 1st on team 138.4 -0.017 SR
2015-03-21 RPM Legacy 400m 1:02.79 9th · 1st on team -0.020 SR
2015-03-21 RPM Legacy 1500m 5:00.47 1st · 1st on team 140.8 -0.020 SR RSR

2014 TF 139.2

Full Stride (CA) · Grade 7

Date Meet Event Result Place Rating Difficulty PR/SR Flags
2014-05-31 Pacific Association Championships (PAC) 400m 1:01.53 4th · 1st on team -0.024 ★PR SR
2014-05-31 Pacific Association Championships (PAC) 800m 2:21.56 2nd · 1st on team 142.9 -0.024 ★PR SR RSR
2014-05-31 Pacific Association Championships (PAC) 1500m 5:03.64 2nd · 1st on team 138.8 -0.024
2014-03-29 East County Cheetahs TC 800m 2:35.49 1st · 1st on team 131.4 -0.017 SR
2014-03-29 East County Cheetahs TC 1500m 5:03.17 1st · 1st on team 140.1 -0.017
2014-03-22 RPM 1500m 4:57.6 1st · 1st on team 142.9 -0.012 SR RSR
2014-03-22 RPM 400m 1:06.74 4th · 1st on team -0.012 SR

2013 TF 135.7

Full Stride (CA) · Grade 6

Date Meet Event Result Place Rating Difficulty PR/SR Flags
2013-07-28 USATF National Junior Olympic Championships 800m 2:29.49 25th · 1st on team 132.5
2013-07-08 AAU Track and Field Club Championships 800m 2:30.85 6th · 1st on team 135.2 -0.012
2013-07-08 AAU Track and Field Club Championships 1500m 5:07.48 2nd · 1st on team 138.0 -0.012
2013-07-06 Region 14 Junior Olympics T&F (2-day) 1500m 4:54.09 1st · 1st on team 140.8 -0.035 ★PR SR RSR
2013-07-06 Region 14 Junior Olympics T&F (2-day) 800m 2:24.85 2nd · 1st on team 137.4 -0.035 PR SR
2013-06-21 Pacific Association Junior Olympics (3-day) 400m 1:03.96 13th · 1st on team -0.034 PR SR
2013-06-21 Pacific Association Junior Olympics (3-day) 400m 1:04.65 17th · 2nd on team -0.034
2013-06-21 Pacific Association Junior Olympics (3-day) 800m 2:30.35 3rd · 1st on team 132.4 -0.034
2013-06-21 Pacific Association Junior Olympics (3-day) 1500m 4:57.18 4th · 1st on team 139.4 -0.034 PR SR
2013-06-08 Pacific Association Youth Championship (PAC) - 2-day meet 800m 2:29.56 2nd · 1st on team 134.7 -0.024
2013-06-08 Pacific Association Youth Championship (PAC) - 2-day meet 1500m 5:05.13 4th · 1st on team 137.4 -0.024
2013-05-18 3M Track Club 1500m 4:57.6 2nd · 1st on team 140.3 -0.028 PR SR RSR
2013-05-18 3M Track Club 3000m 10:59.16 2nd · 1st on team 136.5 -0.028 PR SR
2013-05-04 Hercules / Running Rebels (2-day) 1500m 5:04.43 1st · 1st on team 135.8 -0.038
2013-05-04 Hercules / Running Rebels (2-day) 400m 1:07.37 10th · 1st on team -0.038
2013-05-04 Hercules / Running Rebels (2-day) 800m 2:33.74 2nd · 1st on team 129.1 -0.038
2013-04-27 Revolution Express Track Club 800m 2:27.03 1st · 1st on team 137.1 -0.024 PR SR RSR
2013-04-27 Revolution Express Track Club 400m 1:06.23 8th · 1st on team -0.024 PR SR
2013-04-14 Phoenix Invitational-Day 2 800m 2:30.19 2nd · 1st on team 133.0 -0.033 PR SR
2013-04-14 Phoenix Invitational-Day 2 1500m 5:10.6 1st · 1st on team 133.9 -0.033
2013-04-06 Sacramento Speed Showcase 800m 2:31.26 3rd · 1st on team 132.2 -0.031 PR SR RSR
2013-04-06 Sacramento Speed Showcase 200m 30.6 11th · 2nd on team -0.031 PR SR
2013-04-06 Sacramento Speed Showcase 1500m 5:04.11 2nd · 1st on team 136.6 -0.031 PR SR RSR

2012 TF 143.6

Full Stride (CA) · Grade 5

Date Meet Event Result Place Rating Difficulty PR/SR Flags
2012-06-22 USATF Pacific Association Junior Olympic Championships 400m 1:10.24 2nd · 2nd on team -0.024
2012-06-22 USATF Pacific Association Junior Olympic Championships 1500m 5:19.58 1st · 1st on team 142.9 -0.024
2012-06-22 USATF Pacific Association Junior Olympic Championships 800m 2:35.26 1st · 1st on team 144.4 -0.024
2012-06-22 USATF Pacific Association Junior Olympic Championships 400m 1:06.4 1st · 1st on team -0.024 PR SR
2012-06-15 AAU Area 23 National Qualifier 800m 2:33.51 1st · 1st on team 146.6 -0.025
2012-06-15 AAU Area 23 National Qualifier 400m 1:07.52 1st · 1st on team -0.025 PR SR
2012-06-15 AAU Area 23 National Qualifier 1500m 5:12.65 1st · 1st on team 146.8 -0.025
2012-06-09 Pacific Association Youth Championships 400m 1:08.62 1st · 1st on team -0.034 PR SR
2012-06-09 Pacific Association Youth Championships 800m 2:33.26 1st · 1st on team 145.8 -0.034
2012-06-09 Pacific Association Youth Championships 1500m 5:08.36 1st · 1st on team 147.9 -0.034 ★R RSR
2012-05-26 Central Valley Roadrunners Track Club lj 11-05.50 -0.026
2012-05-26 Central Valley Roadrunners Track Club 200m 30.82 10th · 2nd on team -0.026 PR SR
2012-05-26 Central Valley Roadrunners Track Club 200m 30.81 9th · 1st on team -0.026 PR SR
2012-05-26 Central Valley Roadrunners Track Club 400m 1:08.97 1st · 1st on team -0.026 PR SR
2012-05-19 3M Track Meet lj 12-01.25 -0.031
2012-05-19 3M Track Meet 800m 2:32.85 1st · 1st on team 146.2 -0.031
2012-05-19 3M Track Meet 1500m 5:18.17 2nd · 1st on team 143.4 -0.031
2012-05-05 Hercules Running Rebels / Top Pacers Invitational lj 3.87m -0.038
2012-05-05 Hercules Running Rebels / Top Pacers Invitational 800m 2:31.64 1st · 1st on team 146.6 -0.038 PR SR
2012-05-05 Hercules Running Rebels / Top Pacers Invitational 1500m 5:11.4 2nd · 1st on team 145.7 -0.038
2012-04-14 CA Spring Fling Track Invitational 800m 2:41.75 1st · 1st on team 137.6 -0.038 PR SR
2012-04-14 CA Spring Fling Track Invitational 200m 32.12 4th · 1st on team -0.038
2012-04-14 CA Spring Fling Track Invitational 1500m 5:07.7 1st · 1st on team 147.4 -0.038 PR R SR RSR
2012-04-07 Phenom Elite lj 12-01.00 -0.022
2012-04-07 Phenom Elite 400m 1:10.5 1st · 1st on team -0.022 PR SR
2012-03-24 Revolution Express Track Club 800m 2:43.26 2nd · 1st on team 138.3 -0.024 R RSR
2012-03-24 Revolution Express Track Club 200m 31.72 3rd · 1st on team -0.024 PR SR
2012-01-21 Run for the Dream 1600m 6:01.14 2nd · 1st on team 136.5 -0.025 ★PR SR RSR
2012-01-21 Run for the Dream 800m 2:42.95 1st · 1st on team 138.0 -0.025 PR R SR RSR

2011 TF 135.5

Full Stride (CA) · Grade 4

Date Meet Event Result Place Rating Difficulty PR/SR Flags
2011-06-11 PA USATF Youth Championships (PAC) 800m 2:44.78 4th · 1st on team 136.1 -0.028
2011-06-11 PA USATF Youth Championships (PAC) 1500m 5:37.79 1st · 1st on team 135.3 -0.028
2011-06-11 PA USATF Youth Championships (PAC) 400m 1:12.32 4th · 1st on team -0.028 PR SR
2011-05-21 Hercules Running Rebels & Top Pacers Track Club Invitational 1500m 5:29.92 2nd · 1st on team 137.3 -0.038 PR SR RSR
2011-05-21 Hercules Running Rebels & Top Pacers Track Club Invitational 100m 16.09 50th · 1st on team -0.038 ★PR SR
2011-05-14 3M Track Club Invitational 800m 2:44.01 5th · 1st on team 137.0 -0.028 PR SR RSR
2011-05-14 3M Track Club Invitational 1500m 5:39.81 1st · 1st on team 134.6 -0.028
2011-04-15 CA Track Club Invitational Meet 400m 1:14.84 6th · 1st on team -0.033 SR
2011-04-15 CA Track Club Invitational Meet 800m 2:47.82 3rd · 1st on team 133.0 -0.033 SR RSR
2011-04-15 CA Track Club Invitational Meet 1500m 5:36.21 1st · 1st on team 135.3 -0.033 SR RSR

2010 TF 130.1

Full Stride (CA) · Grade 3

Date Meet Event Result Place Rating Difficulty PR/SR Flags
2010-07-09 USATF Region 16 Junior Olympic T&F Championships 800m 2:47.77 6th · 1st on team 134.0 -0.024 PR SR
2010-07-09 USATF Region 16 Junior Olympic T&F Championships 1500m 5:37.33 1st · 1st on team 135.9 -0.024
2010-07-09 USATF Region 16 Junior Olympic T&F Championships 400m 1:14.3 17th · 1st on team -0.024 PR SR
2010-05-22 Central Valley Roadrunners 400m 1:18.58 9th · 1st on team -0.024
2010-05-22 Central Valley Roadrunners 1500m 5:35.66 2nd · 1st on team 136.3 -0.024
2010-05-22 Central Valley Roadrunners 800m 3:12.43 4th · 1st on team 116.6 -0.024
2010-05-01 UMOJA 1500m 5:34.62 2nd · 1st on team 138.0 -0.016 R RSR
2010-05-01 UMOJA 800m 2:51.23 3rd · 1st on team 132.2 -0.016
2010-05-01 UMOJA 400m 1:16.14 14th · 1st on team -0.016
2010-04-17 C. A Track Club Youth Meet 800m 2:49.3 1st · 1st on team 131.2 -0.033 PR SR
2010-04-17 C. A Track Club Youth Meet 1500m 5:37 1st · 1st on team 134.6 -0.033
2010-04-17 C. A Track Club Youth Meet 400m 1:15.2 1st · 1st on team -0.033 PR SR
2010-04-03 Stockton Saints 1500m 5:34.4 1st · 1st on team 137.3 -0.023 PR R SR RSR
2010-04-03 Stockton Saints 800m 2:49.9 2nd · 1st on team 132.8 -0.023 PR SR
2010-03-13 EOYDC 800m 3:33 1st · 1st on team 104.1 -0.036
2010-03-13 EOYDC 1500m 5:43 1st · 1st on team 131.8 -0.036 PR SR RSR
2009-08-01 AAU 2009 Junior Olympics lj 9'07.00 -0.043
2009-08-01 AAU 2009 Junior Olympics 400m 1:16.04 1st · 1st on team -0.043 SR
2009-08-01 AAU 2009 Junior Olympics 800m 2:53.4 1st · 1st on team 126.6 -0.043 PR SR RSR

2009 TF 124.7

Full Stride (CA) · Grade 2

Date Meet Event Result Place Rating Difficulty PR/SR Flags
2009-07-11 USATF Region 14 Junior Olympic Track & Field Championships 800m 2:56.81 5th · 1st on team 126.1 -0.031
2009-07-11 USATF Region 14 Junior Olympic Track & Field Championships 1500m 5:51.3 3rd · 1st on team 129.6 -0.031 PR R SR RSR
2009-06-26 USATF PA Junior Olympics (Top 8 advance) 1500m 6:00.96 3rd · 1st on team 126.1 -0.031
2009-06-26 USATF PA Junior Olympics (Top 8 advance) 800m 3:00.55 5th · 1st on team 123.5 -0.031
2009-06-26 USATF PA Junior Olympics (Top 8 advance) 400m 1:22.37 23rd · 1st on team -0.031
2009-06-19 AAU Track & Field Northern California National Qualifier lj 3.12m -0.025
2009-06-19 AAU Track & Field Northern California National Qualifier 800m 2:54.78 1st · 1st on team 128.4 -0.025 PR SR
2009-06-19 AAU Track & Field Northern California National Qualifier 400m 1:15.65 1st · 1st on team -0.025 PR SR
2009-05-30 Central Valley Roadrunners lj 8-11.00 -0.024
2009-05-30 Central Valley Roadrunners 1500m 5:58.57 2nd · 1st on team 128.1 -0.024
2009-05-30 Central Valley Roadrunners 800m 3:03.71 2nd · 1st on team 122.4 -0.024
2009-05-23 LA Jets Invitational 1500m 6:20.7 10th · 1st on team 119.3 -0.035
2009-05-23 LA Jets Invitational 800m 3:13.02 24th · 1st on team 115.2 -0.035
2009-05-16 3M Track Club lj 10-09.00 -0.028
2009-05-16 3M Track Club 800m 2:58.97 3rd · 1st on team 125.2 -0.028 PR SR
2009-05-16 3M Track Club 1500m 5:58.63 2nd · 1st on team 127.7 -0.028
2009-05-02 Race results → lj 9-01.00
2009-05-02 Race results → 1500m 5:52.56 2nd · 1st on team 129.6 PR R SR RSR
2009-05-02 Race results → 800m 3:02.25 3rd · 1st on team 122.8 PR SR
2009-04-25 Eddie Hart 100m 16.76 1st · 1st on team -0.022 PR SR
2009-04-18 Roseville Express Track Club lj 8-09.25 -0.025
2009-04-18 Roseville Express Track Club 800m 3:04.38 2nd · 1st on team 122.0 -0.025 PR R SR RSR
2009-04-18 Roseville Express Track Club 1500m 6:09.73 3rd · 1st on team 124.2 -0.025 PR R SR RSR
2009-04-04 Stockton Saints Track Club lj 8-02.5 -0.023
2009-04-04 Stockton Saints Track Club 400m 1:22.54 3rd · 1st on team -0.023 PR SR
2009-04-04 Stockton Saints Track Club 200m 37.04 6th · 1st on team -0.023 PR SR
2009-03-14 Race results → lj 8-01.50
2009-03-14 Race results → 400m 1:23.88 3rd · 1st on team PR SR
2009-03-14 Race results → 100m 19.15 9th · 1st on team PR SR

2008 TF 114.3

Full Stride (CA) · Grade 1

Date Meet Event Result Place Rating Difficulty PR/SR Flags
2008-07-26 2008 AAU Junior Olympic Games lj 8-01.00 -0.026
2008-07-26 2008 AAU Junior Olympic Games 800m 3:12.23 33rd · 1st on team 116.7 -0.026 PR R SR RSR
2008-06-07 Pacific Association Championships (PAC) lj 2.41m -0.024
2008-06-07 Pacific Association Championships (PAC) 400m 1:30.77 8th · 2nd on team -0.024 PR SR
2008-06-07 Pacific Association Championships (PAC) 200m 38.8 29th · 2nd on team -0.024 PR SR
2008-05-03 UMOJA Youth Track Club lj 2.34m -0.016
2008-05-03 UMOJA Youth Track Club 400m 1:36.66 15th · 2nd on team -0.016 PR SR
2008-05-03 UMOJA Youth Track Club 800m 3:21.94 7th · 2nd on team 112.0 -0.016 PR R SR RSR